Wetterdaten: Januar 2014
Datum Temp Feuchte Luftdruck Regen Wind Richtung Sonnenschein UV Solar Windben
01.01.2014 4,2 C 90 % 1008,3 hPa 0,6 l/m 16,6 km/h S-SO 4,50 h 0,6 UV-I 121 W/m 28,5 km/h
02.01.2014 6,4 C 89 % 1003,2 hPa 0,2 l/m 11,9 km/h S 0,50 h 0,5 UV-I 65 W/m 18,9 km/h
03.01.2014 5,5 C 94 % 1005,7 hPa 4,6 l/m 15,8 km/h S-SO 0,33 h 0,5 UV-I 46 W/m 27,4 km/h
04.01.2014 5,0 C 89 % 1001,9 hPa 0,2 l/m 3,6 km/h S 0,00 h 0,5 UV-I 65 W/m 9,3 km/h
05.01.2014 3,6 C 92 % 1007,5 hPa 5,0 l/m 3,6 km/h S 2,33 h 0,5 UV-I 88 W/m 8,5 km/h
06.01.2014 6,4 C 94 % 1006,9 hPa 8,2 l/m 11,6 km/h S-SO 0,00 h 0,5 UV-I 32 W/m 22,5 km/h
07.01.2014 8,7 C 87 % 1013,0 hPa 0,6 l/m 7,9 km/h S 3,58 h 0,6 UV-I 111 W/m 14,9 km/h
08.01.2014 6,7 C 91 % 1016,4 hPa 4,8 l/m 2,2 km/h S 0,50 h 0,5 UV-I 59 W/m 6,4 km/h
09.01.2014 7,7 C 90 % 1005,7 hPa 2,4 l/m 13,5 km/h S 0,00 h 0,0 UV-I 33 W/m 32,2 km/h
10.01.2014 4,9 C 88 % 1015,1 hPa 0,0 l/m 4,6 km/h SW 0,58 h 0,5 UV-I 57 W/m 13,7 km/h
11.01.2014 3,2 C 91 % 1016,5 hPa 2,6 l/m 4,1 km/h S-SW 2,83 h 0,6 UV-I 113 W/m 17,3 km/h
12.01.2014 1,0 C 93 % 1020,8 hPa 0,0 l/m 1,6 km/h W 1,25 h 0,5 UV-I 82 W/m 7,6 km/h
13.01.2014 3,5 C 92 % 1011,1 hPa 0,0 l/m 2,9 km/h S 0,17 h 0,5 UV-I 46 W/m 4,4 km/h
14.01.2014 3,6 C 95 % 1007,5 hPa 0,2 l/m 3,3 km/h S-SO 0,83 h 0,5 UV-I 76 W/m 5,6 km/h
15.01.2014 3,4 C 91 % 1007,6 hPa 1,4 l/m 10,9 km/h S-SO 3,83 h 0,6 UV-I 124 W/m 17,3 km/h
16.01.2014 5,0 C 96 % 1000,9 hPa 5,2 l/m 5,6 km/h S-SO 0,00 h 0,5 UV-I 40 W/m 9,3 km/h
17.01.2014 5,1 C 93 % 1001,7 hPa 0,0 l/m 8,3 km/h S 0,92 h 0,5 UV-I 71 W/m 14,1 km/h
18.01.2014 3,5 C 92 % 1002,6 hPa 0,0 l/m 17,0 km/h S-SO 2,00 h 0,6 UV-I 107 W/m 25,0 km/h
19.01.2014 3,5 C 95 % 1001,5 hPa 0,0 l/m 5,8 km/h SO 0,00 h 0,0 UV-I 29 W/m 18,9 km/h
20.01.2014 -0,1 C 97 % 1005,8 hPa 0,2 l/m 0,0 km/h N-NO 0,00 h 0,0 UV-I 23 W/m 0,0 km/h
21.01.2014 0,3 C 97 % 1011,8 hPa 0,2 l/m 0,0 km/h NW 0,00 h 0,0 UV-I 25 W/m 0,0 km/h
22.01.2014 1,5 C 98 % 1013,9 hPa 0,4 l/m 0,1 km/h SO 0,00 h 0,0 UV-I 34 W/m 1,6 km/h
23.01.2014 0,5 C 98 % 1012,6 hPa 0,6 l/m 2,2 km/h S-SO 0,00 h 0,0 UV-I 19 W/m 7,3 km/h
24.01.2014 -1,2 C 98 % 1016,9 hPa 2,0 l/m 0,8 km/h O-SO 0,00 h 0,0 UV-I 22 W/m 4,0 km/h
25.01.2014 -3,7 C 95 % 1015,2 hPa 0,8 l/m 6,4 km/h S-SO 0,00 h 0,0 UV-I 33 W/m 13,7 km/h
26.01.2014 -0,8 C 98 % 1002,5 hPa 9,2 l/m 9,5 km/h S-SO 0,00 h 0,0 UV-I 26 W/m 12,9 km/h
27.01.2014 1,2 C 93 % 996,1 hPa 7,0 l/m 3,6 km/h S 2,67 h 0,7 UV-I 124 W/m 13,7 km/h
28.01.2014 1,0 C 92 % 1000,9 hPa 0,0 l/m 9,9 km/h S-SO 3,83 h 0,7 UV-I 137 W/m 17,3 km/h
29.01.2014 -2,9 C 93 % 1004,3 hPa 0,0 l/m 5,9 km/h SO 0,00 h 0,5 UV-I 53 W/m 17,3 km/h
30.01.2014 -1,7 C 88 % 1008,7 hPa 0,0 l/m 5,3 km/h SO 4,83 h 0,7 UV-I 160 W/m 13,7 km/h
31.01.2014 0,7 C 86 % 1007,8 hPa 0,0 l/m 5,1 km/h S-SO 5,33 h 0,7 UV-I 173 W/m 10,9 km/h
Min-Datum 30.01.14 15.01.14 27.01.14 21 Tage 01.01.14 - - - - 01.01.14
Min-Zeit 06:05 14:10 02:05 - 05:45 - - - - 05:45
Minimum -4,5 C 72 % 990,9 hPa - 0,0 km/h - - - - 0,0 km/h
Max-Datum 09.01.14 12.01.14 12.01.14 26.01.14 09.01.14 - 31.01.14 27.01.14 27.01.14 03.01.14
Max-Zeit 11:35 01:55 10:05 05:45 15:20 - 15:50 12:00 12:30 20:45
Maximum 11,4 C 100 % 1024,8 hPa 9,2 l/m 36,0 km/h
S
- 5,25 h 1,0 UV-I 446 W/m 61,2 km/h
S-SO
Durchschnitt 2,8 C 93 % 1008,1 hPa #56,4 l/m 6,4 km/h S-SO #40:50 h 0,6 UV-I 71 W/m 13,4 km/h

Durchschnitt Minimum Temp.0,6 C
Durchschnitt Maximum Temp.5,0 C